createdAt,value
2022-12-01T00:01:12.681Z,8.43
2022-12-01T00:03:41.856Z,8.40
2022-12-01T00:06:19.116Z,8.29
2022-12-01T00:09:06.256Z,8.17
2022-12-01T00:11:35.590Z,8.00
2022-12-01T00:14:04.514Z,7.81
2022-12-01T00:16:33.612Z,7.69
2022-12-01T00:19:02.592Z,7.64
2022-12-01T00:21:31.591Z,7.65
2022-12-01T00:23:58.243Z,7.65
2022-12-01T00:26:30.997Z,7.65
2022-12-01T00:28:58.639Z,7.63
2022-12-01T00:31:25.859Z,7.61
2022-12-01T00:33:52.744Z,7.58
2022-12-01T00:36:19.315Z,7.56
2022-12-01T00:38:46.069Z,7.50
2022-12-01T00:41:12.644Z,7.45
2022-12-01T00:43:39.880Z,7.45
2022-12-01T00:46:08.146Z,7.38
2022-12-01T00:48:37.138Z,7.38
2022-12-01T00:51:03.853Z,7.36
2022-12-01T00:53:30.645Z,7.32
2022-12-01T00:55:57.383Z,7.30
2022-12-01T00:58:26.307Z,7.30
2022-12-01T01:00:59.696Z,7.25
2022-12-01T01:03:29.512Z,7.18
2022-12-01T01:05:59.009Z,7.16
2022-12-01T01:08:27.671Z,7.14
2022-12-01T01:10:54.565Z,7.14
2022-12-01T01:13:21.092Z,7.16
2022-12-01T01:15:56.673Z,7.16
2022-12-01T01:18:25.887Z,7.14
2022-12-01T01:20:56.650Z,7.12
2022-12-01T01:23:23.259Z,7.06
2022-12-01T01:25:54.297Z,7.01
2022-12-01T01:28:20.900Z,6.99
2022-12-01T01:30:49.866Z,6.99
2022-12-01T01:33:16.457Z,6.90
2022-12-01T01:35:43.112Z,6.83
2022-12-01T01:38:12.309Z,6.77
2022-12-01T01:40:46.539Z,6.73
2022-12-01T01:43:20.598Z,6.73
2022-12-01T01:45:51.719Z,6.73
2022-12-01T01:48:18.478Z,6.72
2022-12-01T01:50:45.032Z,6.71
2022-12-01T01:53:15.005Z,6.68
2022-12-01T01:55:41.617Z,6.54
2022-12-01T01:58:10.658Z,6.39
2022-12-01T02:00:38.268Z,6.34
2022-12-01T02:03:07.694Z,6.34
2022-12-01T02:05:34.538Z,6.30
2022-12-01T02:08:01.604Z,6.27
2022-12-01T02:10:42.771Z,6.25
2022-12-01T02:13:16.299Z,6.26
2022-12-01T02:15:46.011Z,6.23
2022-12-01T02:18:31.256Z,6.22
2022-12-01T02:21:08.809Z,6.24
2022-12-01T02:23:57.753Z,6.25
2022-12-01T02:26:32.733Z,6.22
2022-12-01T02:29:18.093Z,6.22
2022-12-01T02:31:51.000Z,6.24
2022-12-01T02:34:22.883Z,6.25
2022-12-01T02:36:51.626Z,6.10
2022-12-01T02:39:21.161Z,6.01
2022-12-01T02:41:51.397Z,5.99
2022-12-01T02:44:18.877Z,6.00
2022-12-01T02:46:54.465Z,6.02
2022-12-01T02:49:22.582Z,6.03
2022-12-01T02:51:49.282Z,6.05
2022-12-01T02:54:15.906Z,5.99
2022-12-01T02:56:46.102Z,5.92
2022-12-01T02:59:15.983Z,5.86
2022-12-01T03:01:46.128Z,5.88
2022-12-01T03:04:21.656Z,5.92
2022-12-01T03:06:51.606Z,5.96
2022-12-01T03:09:27.394Z,5.98
2022-12-01T03:11:57.235Z,5.96
2022-12-01T03:14:35.362Z,5.93
2022-12-01T03:17:04.447Z,5.93
2022-12-01T03:19:36.238Z,5.92
2022-12-01T03:22:11.273Z,5.92
2022-12-01T03:24:37.989Z,5.88
2022-12-01T03:27:04.674Z,5.82
2022-12-01T03:29:39.959Z,5.83
2022-12-01T03:32:21.339Z,5.83
2022-12-01T03:35:10.935Z,5.81
2022-12-01T03:37:39.578Z,5.84
2022-12-01T03:40:07.202Z,5.84
2022-12-01T03:42:36.895Z,5.85
2022-12-01T03:45:07.745Z,5.88
2022-12-01T03:47:35.765Z,5.86
2022-12-01T03:50:02.309Z,5.92
2022-12-01T03:52:28.921Z,5.96
2022-12-01T03:54:59.505Z,6.00
2022-12-01T03:57:29.234Z,5.98
2022-12-01T03:59:55.976Z,6.01
2022-12-01T04:02:25.537Z,6.03
2022-12-01T04:04:52.138Z,6.03
2022-12-01T04:07:18.678Z,6.06
2022-12-01T04:09:45.205Z,6.05
2022-12-01T04:12:30.569Z,6.00
2022-12-01T04:14:57.546Z,5.97
2022-12-01T04:17:24.690Z,5.95
2022-12-01T04:19:53.612Z,5.85
2022-12-01T04:22:25.229Z,5.79
2022-12-01T04:24:52.129Z,5.69
2022-12-01T04:27:19.016Z,5.52
2022-12-01T04:29:45.820Z,5.53
2022-12-01T04:32:13.521Z,5.55
2022-12-01T04:34:40.394Z,5.59
2022-12-01T04:37:10.064Z,5.62
2022-12-01T04:39:36.656Z,5.63
2022-12-01T04:42:03.224Z,5.59
2022-12-01T04:44:34.944Z,5.57
2022-12-01T04:47:02.293Z,5.52
2022-12-01T04:49:32.640Z,5.48
2022-12-01T04:52:01.783Z,5.30
2022-12-01T04:54:28.393Z,5.22
2022-12-01T04:56:54.895Z,5.18
2022-12-01T04:59:21.495Z,5.22
2022-12-01T05:01:48.339Z,5.24
2022-12-01T05:04:17.553Z,5.26
2022-12-01T05:06:44.153Z,5.29
2022-12-01T05:09:17.515Z,5.31
2022-12-01T05:11:44.803Z,5.33
2022-12-01T05:14:11.316Z,5.31
2022-12-01T05:16:40.479Z,5.29
2022-12-01T05:19:25.920Z,5.27
2022-12-01T05:21:52.603Z,5.20
2022-12-01T05:24:19.571Z,5.17
2022-12-01T05:26:51.692Z,5.14
2022-12-01T05:29:18.346Z,5.15
2022-12-01T05:31:45.482Z,5.18
2022-12-01T05:34:16.702Z,5.21
2022-12-01T05:36:43.684Z,5.26
2022-12-01T05:39:12.747Z,5.26
2022-12-01T05:41:42.061Z,5.22
2022-12-01T05:44:08.743Z,5.18
2022-12-01T05:46:37.826Z,5.18
2022-12-01T05:49:10.066Z,5.13
2022-12-01T05:51:37.094Z,5.10
2022-12-01T05:54:04.084Z,5.09
2022-12-01T05:56:32.868Z,5.07
2022-12-01T05:59:02.138Z,5.04
2022-12-01T06:01:33.959Z,5.00
2022-12-01T06:04:04.011Z,4.95
2022-12-01T06:06:30.822Z,4.81
2022-12-01T06:08:57.913Z,4.61
2022-12-01T06:11:26.529Z,4.52
2022-12-01T06:13:55.513Z,4.40
2022-12-01T06:16:22.339Z,4.40
2022-12-01T06:18:48.870Z,4.42
2022-12-01T06:21:17.860Z,4.38
2022-12-01T06:23:44.572Z,4.39
2022-12-01T06:26:13.676Z,4.36
2022-12-01T06:28:40.310Z,4.41
2022-12-01T06:31:06.900Z,4.34
2022-12-01T06:33:33.489Z,4.28
2022-12-01T06:36:04.267Z,4.25
2022-12-01T06:38:36.772Z,4.29
2022-12-01T06:41:03.635Z,4.37
2022-12-01T06:43:34.344Z,4.40
2022-12-01T06:46:04.192Z,4.42
2022-12-01T06:48:31.723Z,4.43
2022-12-01T06:50:58.919Z,4.42
2022-12-01T06:53:27.420Z,4.38
2022-12-01T06:55:57.426Z,4.35
2022-12-01T06:58:24.020Z,4.38
2022-12-01T07:00:53.196Z,4.35
2022-12-01T07:03:19.772Z,4.30
2022-12-01T07:05:54.630Z,4.31
2022-12-01T07:08:23.383Z,4.38
2022-12-01T07:11:02.873Z,4.41
2022-12-01T07:13:33.993Z,4.46
2022-12-01T07:16:01.362Z,4.52
2022-12-01T07:18:27.873Z,4.57
2022-12-01T07:20:56.766Z,4.60
2022-12-01T07:23:25.823Z,4.44
2022-12-01T07:25:59.537Z,4.47
2022-12-01T07:28:29.174Z,4.54
2022-12-01T07:31:05.864Z,4.59
2022-12-01T07:33:32.515Z,4.66
2022-12-01T07:35:59.458Z,4.74
2022-12-01T07:38:27.806Z,4.83
2022-12-01T07:40:56.904Z,4.90
2022-12-01T07:43:23.400Z,5.03
2022-12-01T07:45:50.126Z,5.08
2022-12-01T07:48:19.047Z,5.09
2022-12-01T07:50:45.782Z,5.16
2022-12-01T07:53:14.703Z,5.25
2022-12-01T07:55:48.007Z,5.30
2022-12-01T07:58:14.567Z,5.39
2022-12-01T08:00:41.207Z,5.49
2022-12-01T08:03:07.802Z,5.59
2022-12-01T08:05:34.447Z,5.65
2022-12-01T08:08:01.095Z,5.74
2022-12-01T08:10:30.474Z,5.82
2022-12-01T08:12:57.460Z,5.92
2022-12-01T08:15:24.301Z,5.97
2022-12-01T08:17:51.693Z,6.06
2022-12-01T08:20:24.098Z,6.16
2022-12-01T08:22:53.283Z,6.25
2022-12-01T08:25:22.603Z,6.32
2022-12-01T08:27:49.132Z,6.41
2022-12-01T08:30:18.839Z,6.55
2022-12-01T08:32:47.894Z,6.67
2022-12-01T08:35:15.337Z,6.80
2022-12-01T08:37:42.365Z,6.83
2022-12-01T08:40:09.226Z,6.83
2022-12-01T08:42:35.803Z,6.89
2022-12-01T08:45:02.435Z,6.97
2022-12-01T08:47:29.090Z,7.03
2022-12-01T08:49:58.348Z,7.16
2022-12-01T08:52:24.890Z,7.28
2022-12-01T08:54:54.293Z,7.42
2022-12-01T08:57:21.012Z,7.58
2022-12-01T08:59:49.814Z,7.72
2022-12-01T09:02:18.335Z,7.69
2022-12-01T09:04:47.496Z,7.74
2022-12-01T09:07:19.038Z,7.75
2022-12-01T09:09:48.388Z,7.84
2022-12-01T09:12:15.219Z,7.89
2022-12-01T09:14:48.177Z,8.02
2022-12-01T09:17:17.219Z,8.13
2022-12-01T09:19:46.286Z,8.22
2022-12-01T09:22:13.114Z,8.25
2022-12-01T09:24:42.110Z,8.34
2022-12-01T09:27:09.273Z,8.45
2022-12-01T09:29:35.842Z,8.52
2022-12-01T09:32:02.418Z,8.65
2022-12-01T09:34:29.222Z,8.69
2022-12-01T09:36:58.582Z,8.79
2022-12-01T09:39:27.700Z,8.86
2022-12-01T09:42:09.150Z,8.81
2022-12-01T09:44:37.845Z,8.97
2022-12-01T09:47:10.148Z,9.00
2022-12-01T09:49:42.559Z,8.95
2022-12-01T09:52:16.108Z,9.03
2022-12-01T09:54:45.498Z,9.24
2022-12-01T09:57:17.538Z,9.47
2022-12-01T09:59:44.398Z,9.61
2022-12-01T10:02:37.434Z,9.66
2022-12-01T10:05:05.670Z,9.70
2022-12-01T10:07:39.198Z,9.78
2022-12-01T10:10:09.773Z,9.82
2022-12-01T10:12:36.590Z,10.03
2022-12-01T10:15:06.160Z,10.12
2022-12-01T10:17:44.406Z,10.25
2022-12-01T10:20:16.716Z,10.32
2022-12-01T10:22:46.443Z,10.49
2022-12-01T10:25:19.195Z,10.59
2022-12-01T10:28:03.976Z,10.69
2022-12-01T10:30:30.550Z,10.89
2022-12-01T10:32:59.867Z,11.04
2022-12-01T10:35:29.223Z,11.31
2022-12-01T10:38:04.541Z,11.47
2022-12-01T10:40:35.251Z,11.62
2022-12-01T10:43:04.656Z,11.73
2022-12-01T10:45:34.970Z,11.98
2022-12-01T10:48:16.953Z,12.29
2022-12-01T10:50:44.635Z,12.69
2022-12-01T10:53:31.700Z,13.14
2022-12-01T10:56:05.818Z,13.47
2022-12-01T10:58:52.838Z,13.74
2022-12-01T11:01:20.941Z,14.00
2022-12-01T11:03:57.816Z,14.20
2022-12-01T11:06:25.652Z,14.19
2022-12-01T11:09:00.400Z,14.42
2022-12-01T11:11:26.936Z,14.68
2022-12-01T11:13:56.944Z,14.75
2022-12-01T11:16:39.294Z,14.64
2022-12-01T11:19:26.631Z,14.53
2022-12-01T11:21:59.919Z,14.33
2022-12-01T11:24:45.614Z,14.34
2022-12-01T11:27:16.734Z,14.08
2022-12-01T11:29:45.809Z,13.80
2022-12-01T11:32:22.936Z,13.39
2022-12-01T11:34:51.056Z,13.29
2022-12-01T11:37:18.132Z,13.24
2022-12-01T11:39:48.481Z,13.33
2022-12-01T11:42:22.750Z,13.43
2022-12-01T11:44:51.730Z,13.58
2022-12-01T11:47:23.596Z,13.84
2022-12-01T11:49:58.102Z,14.08
2022-12-01T11:52:29.766Z,14.48
2022-12-01T11:54:56.481Z,14.97
2022-12-01T11:57:34.190Z,15.35
2022-12-01T12:00:04.930Z,15.51
2022-12-01T12:02:54.555Z,15.47
2022-12-01T12:05:32.656Z,15.22
2022-12-01T12:08:14.528Z,14.81
2022-12-01T12:10:47.340Z,14.47
2022-12-01T12:13:17.051Z,14.15
2022-12-01T12:15:52.806Z,14.04
2022-12-01T12:18:38.237Z,13.87
2022-12-01T12:21:08.014Z,13.91
2022-12-01T12:23:37.437Z,13.93
2022-12-01T12:26:18.807Z,13.95
2022-12-01T12:28:52.374Z,14.13
2022-12-01T12:31:21.993Z,14.41
2022-12-01T12:34:11.081Z,14.48
2022-12-01T12:36:52.547Z,14.79
2022-12-01T12:39:24.789Z,14.89
2022-12-01T12:41:55.440Z,15.10
2022-12-01T12:44:39.181Z,15.44
2022-12-01T12:47:25.113Z,15.86
2022-12-01T12:49:54.816Z,15.95
2022-12-01T12:52:36.724Z,16.20
2022-12-01T12:55:12.677Z,16.23
2022-12-01T12:57:46.152Z,16.02
2022-12-01T13:00:17.813Z,15.99
2022-12-01T13:02:44.676Z,16.21
2022-12-01T13:05:14.530Z,16.28
2022-12-01T13:07:54.706Z,16.13
2022-12-01T13:10:23.831Z,16.11
2022-12-01T13:13:15.959Z,15.73
2022-12-01T13:15:42.640Z,15.67
2022-12-01T13:18:31.767Z,15.50
2022-12-01T13:21:02.409Z,15.65
2022-12-01T13:23:29.104Z,15.72
2022-12-01T13:25:57.951Z,15.66
2022-12-01T13:28:28.938Z,15.82
2022-12-01T13:31:01.868Z,15.95
2022-12-01T13:33:31.004Z,15.97
2022-12-01T13:36:29.883Z,15.82
2022-12-01T13:38:46.910Z,15.81
2022-12-01T13:41:18.618Z,15.70
2022-12-01T13:44:04.799Z,15.30
2022-12-01T13:46:50.788Z,15.26
2022-12-01T13:49:38.399Z,15.27
2022-12-01T13:52:23.458Z,15.09
2022-12-01T13:55:08.395Z,14.93
2022-12-01T13:57:38.908Z,14.70
2022-12-01T14:00:27.656Z,14.57
2022-12-01T14:03:12.850Z,14.48
2022-12-01T14:05:42.042Z,14.46
2022-12-01T14:08:40.269Z,14.32
2022-12-01T14:11:09.222Z,14.11
2022-12-01T14:13:46.434Z,13.94
2022-12-01T14:16:13.115Z,13.73
2022-12-01T14:18:43.378Z,13.54
2022-12-01T14:21:14.165Z,13.23
2022-12-01T14:23:58.459Z,12.91
2022-12-01T14:26:27.500Z,12.62
2022-12-01T14:29:00.297Z,12.43
2022-12-01T14:31:32.994Z,12.21
2022-12-01T14:34:02.586Z,12.01
2022-12-01T14:36:44.878Z,11.86
2022-12-01T14:39:14.045Z,11.76
2022-12-01T14:41:40.676Z,11.64
2022-12-01T14:44:18.810Z,11.53
2022-12-01T14:46:53.316Z,11.39
2022-12-01T14:49:24.861Z,11.26
2022-12-01T14:51:53.994Z,11.20
2022-12-01T14:54:23.662Z,11.09
2022-12-01T14:56:51.499Z,11.03
2022-12-01T14:59:24.448Z,10.93
2022-12-01T15:01:51.653Z,10.81
2022-12-01T15:04:18.496Z,10.72
2022-12-01T15:06:47.578Z,10.66
2022-12-01T15:12:04.859Z,10.56
2022-12-01T15:14:36.163Z,10.53
2022-12-01T15:17:05.563Z,10.46
2022-12-01T15:19:32.373Z,10.42
2022-12-01T15:21:59.485Z,10.41
2022-12-01T15:24:27.134Z,10.40
2022-12-01T15:26:59.107Z,10.36
2022-12-01T15:29:29.933Z,10.34
2022-12-01T15:32:00.383Z,10.31
2022-12-01T15:34:29.076Z,10.27
2022-12-01T15:36:58.077Z,10.24
2022-12-01T15:39:29.827Z,10.22
2022-12-01T15:41:56.474Z,10.20
2022-12-01T15:44:27.094Z,10.21
2022-12-01T15:46:53.742Z,10.19
2022-12-01T15:49:30.083Z,10.19
2022-12-01T15:52:09.614Z,10.16
2022-12-01T15:54:41.159Z,10.09
2022-12-01T15:57:07.863Z,10.02
2022-12-01T15:59:40.306Z,10.02
2022-12-01T16:02:16.668Z,10.01
2022-12-01T16:04:43.912Z,9.97
2022-12-01T16:07:14.001Z,9.96
2022-12-01T16:09:44.476Z,9.92
2022-12-01T16:12:17.736Z,9.89
2022-12-01T16:14:49.857Z,9.88
2022-12-01T16:17:17.192Z,9.84
2022-12-01T16:19:46.135Z,9.79
2022-12-01T16:22:15.798Z,9.74
2022-12-01T16:24:54.243Z,9.73
2022-12-01T16:27:23.440Z,9.69
2022-12-01T16:29:53.119Z,9.64
2022-12-01T16:32:22.781Z,9.57
2022-12-01T16:34:50.581Z,9.53
2022-12-01T16:37:17.268Z,9.47
2022-12-01T16:39:46.147Z,9.42
2022-12-01T16:42:13.871Z,9.40
2022-12-01T16:44:43.613Z,9.34
2022-12-01T16:47:12.401Z,9.27
2022-12-01T16:49:39.459Z,9.25
2022-12-01T16:52:21.999Z,9.22
2022-12-01T16:54:53.481Z,9.21
2022-12-01T16:57:20.083Z,9.24
2022-12-01T16:59:46.598Z,9.24
2022-12-01T17:02:19.314Z,9.23
2022-12-01T17:04:45.955Z,9.23
2022-12-01T17:07:16.844Z,9.22
2022-12-01T17:09:46.248Z,9.25
2022-12-01T17:12:15.862Z,9.26
2022-12-01T17:14:42.492Z,9.25
2022-12-01T17:17:09.121Z,9.23
2022-12-01T17:19:35.774Z,9.19
2022-12-01T17:22:04.666Z,9.16
2022-12-01T17:24:31.513Z,9.07
2022-12-01T17:27:02.529Z,9.02
2022-12-01T17:29:29.073Z,8.95
2022-12-01T17:31:58.146Z,8.86
2022-12-01T17:34:27.597Z,8.75
2022-12-01T17:36:56.633Z,8.71
2022-12-01T17:39:23.552Z,8.66
2022-12-01T17:41:50.131Z,8.65
2022-12-01T17:44:19.311Z,8.57
2022-12-01T17:46:45.887Z,8.49
2022-12-01T17:49:13.667Z,8.40
2022-12-01T17:51:40.566Z,8.32
2022-12-01T17:54:07.353Z,8.28
2022-12-01T17:56:34.760Z,8.23
2022-12-01T17:59:06.109Z,8.22
2022-12-01T18:01:33.127Z,8.18
2022-12-01T18:03:59.749Z,8.11
2022-12-01T18:06:26.981Z,8.04
2022-12-01T18:08:53.837Z,7.99
2022-12-01T18:11:20.848Z,7.91
2022-12-01T18:13:50.201Z,7.85
2022-12-01T18:16:21.353Z,7.77
2022-12-01T18:18:48.111Z,7.75
2022-12-01T18:21:15.986Z,7.71
2022-12-01T18:23:43.119Z,7.63
2022-12-01T18:26:15.432Z,7.44
2022-12-01T18:28:44.925Z,7.27
2022-12-01T18:31:16.066Z,7.26
2022-12-01T18:33:43.581Z,7.28
2022-12-01T18:36:14.038Z,7.32
2022-12-01T18:38:43.347Z,7.32
2022-12-01T18:41:14.060Z,7.30
2022-12-01T18:43:42.939Z,7.28
2022-12-01T18:46:10.199Z,7.23
2022-12-01T18:48:42.483Z,7.26
2022-12-01T18:51:11.429Z,7.26
2022-12-01T18:53:38.318Z,7.27
2022-12-01T18:56:15.190Z,7.25
2022-12-01T18:58:42.065Z,7.23
2022-12-01T19:01:22.575Z,7.23
2022-12-01T19:03:51.341Z,7.23
2022-12-01T19:06:20.643Z,7.23
2022-12-01T19:08:47.264Z,7.22
2022-12-01T19:11:16.316Z,7.23
2022-12-01T19:13:43.001Z,7.22
2022-12-01T19:16:10.930Z,7.03
2022-12-01T19:18:40.056Z,6.92
2022-12-01T19:21:10.096Z,6.95
2022-12-01T19:23:37.230Z,6.96
2022-12-01T19:26:07.893Z,6.96
2022-12-01T19:28:37.110Z,7.00
2022-12-01T19:31:07.932Z,7.07
2022-12-01T19:33:37.471Z,7.08
2022-12-01T19:36:08.396Z,7.07
2022-12-01T19:38:34.977Z,7.06
2022-12-01T19:41:01.577Z,7.03
2022-12-01T19:43:28.202Z,7.02
2022-12-01T19:45:54.765Z,7.00
2022-12-01T19:48:23.986Z,6.97
2022-12-01T19:50:53.019Z,6.88
2022-12-01T19:53:19.669Z,6.87
2022-12-01T19:55:49.725Z,6.86
2022-12-01T19:58:18.697Z,6.86
2022-12-01T20:00:45.806Z,6.89
2022-12-01T20:03:15.530Z,6.90
2022-12-01T20:05:42.276Z,6.84
2022-12-01T20:08:13.861Z,6.81
2022-12-01T20:10:47.942Z,6.79
2022-12-01T20:13:17.003Z,6.74
2022-12-01T20:15:43.737Z,6.71
2022-12-01T20:18:15.124Z,6.70
2022-12-01T20:20:42.104Z,6.65
2022-12-01T20:23:11.965Z,6.64
2022-12-01T20:25:41.754Z,6.63
2022-12-01T20:28:08.836Z,6.53
2022-12-01T20:30:39.352Z,6.50
2022-12-01T20:33:08.835Z,6.44
2022-12-01T20:35:35.716Z,6.40
2022-12-01T20:38:04.792Z,6.36
2022-12-01T20:40:43.751Z,6.11
2022-12-01T20:43:12.097Z,6.06
2022-12-01T20:45:38.713Z,6.07
2022-12-01T20:48:07.841Z,6.05
2022-12-01T20:50:34.810Z,6.05
2022-12-01T20:53:03.907Z,6.04
2022-12-01T20:55:30.450Z,6.03
2022-12-01T20:57:56.977Z,6.03
2022-12-01T21:00:23.614Z,5.97
2022-12-01T21:02:50.276Z,5.94
2022-12-01T21:05:19.236Z,5.93
2022-12-01T21:07:45.823Z,5.90
2022-12-01T21:10:17.019Z,5.88
2022-12-01T21:13:07.996Z,5.89
2022-12-01T21:15:36.778Z,5.86
2022-12-01T21:18:10.987Z,5.82
2022-12-01T21:20:40.337Z,5.79
2022-12-01T21:23:10.258Z,5.81
2022-12-01T21:25:40.360Z,5.81
2022-12-01T21:28:22.495Z,5.78
2022-12-01T21:30:52.479Z,5.80
2022-12-01T21:33:19.457Z,5.77
2022-12-01T21:35:49.378Z,5.76
2022-12-01T21:38:21.627Z,5.75
2022-12-01T21:40:48.681Z,5.69
2022-12-01T21:43:19.329Z,5.67
2022-12-01T21:45:46.119Z,5.68
2022-12-01T21:48:16.582Z,5.65
2022-12-01T21:50:43.526Z,5.56
2022-12-01T21:53:13.904Z,5.52
2022-12-01T21:55:43.308Z,5.51
2022-12-01T21:58:22.440Z,5.50
2022-12-01T22:00:49.095Z,5.49
2022-12-01T22:03:25.207Z,5.48
2022-12-01T22:06:21.398Z,5.47
2022-12-01T22:08:43.028Z,5.46
2022-12-01T22:11:09.567Z,5.39
2022-12-01T22:13:43.601Z,5.37
2022-12-01T22:16:14.566Z,5.34
2022-12-01T22:18:42.391Z,5.32
2022-12-01T22:21:28.646Z,5.32
2022-12-01T22:24:10.490Z,5.28
2022-12-01T22:26:37.564Z,5.24
2022-12-01T22:29:08.464Z,5.19
2022-12-01T22:31:35.070Z,5.21
2022-12-01T22:34:03.212Z,5.23
2022-12-01T22:36:31.273Z,5.22
2022-12-01T22:38:57.901Z,5.23
2022-12-01T22:41:28.642Z,5.24
2022-12-01T22:43:59.661Z,5.26
2022-12-01T22:46:30.604Z,5.29
2022-12-01T22:48:58.612Z,5.29
2022-12-01T22:51:28.198Z,5.34
2022-12-01T22:53:59.542Z,5.37
2022-12-01T22:56:26.039Z,5.38
2022-12-01T22:58:52.581Z,5.44
2022-12-01T23:01:29.192Z,5.48
2022-12-01T23:03:59.552Z,5.55
2022-12-01T23:06:43.885Z,5.60
2022-12-01T23:09:13.950Z,5.68
2022-12-01T23:11:46.325Z,5.70
2022-12-01T23:14:16.953Z,5.72
2022-12-01T23:16:45.595Z,5.72
2022-12-01T23:19:12.092Z,5.76
2022-12-01T23:21:38.712Z,5.82
2022-12-01T23:24:05.705Z,5.88
2022-12-01T23:26:32.604Z,5.93
2022-12-01T23:29:00.205Z,5.97
2022-12-01T23:31:26.867Z,5.98
2022-12-01T23:33:53.740Z,5.99
2022-12-01T23:36:24.785Z,6.04
2022-12-01T23:39:02.052Z,6.04
2022-12-01T23:41:41.949Z,6.07
2022-12-01T23:44:13.948Z,6.12
2022-12-01T23:46:40.610Z,6.15
2022-12-01T23:49:10.288Z,6.18
2022-12-01T23:51:40.672Z,6.15
2022-12-01T23:54:12.076Z,6.10
2022-12-01T23:56:38.891Z,6.11
2022-12-01T23:59:14.869Z,6.09
